Time;durP1;ratioP1;P1;durP2;ratioP2;P2;SDS_P1;SDS_P2;PMS_P1;PMS_P2;Temp;Humidity;BMP_temperature;BMP_pressure;BME280_temperature;BME280_humidity;BME280_pressure;Samples;Min_cycle;Max_cycle;Signal;HPM_P1;HPM_P2
2022/04/03 00:02:15;;;;;;;26.00;17.88;;;;;;;;;;5056542;28;20055;-64
2022/04/03 00:04:41;;;;;;;24.30;17.65;;;;;;;;;;5038623;28;20059;-64
2022/04/03 00:07:08;;;;;;;26.48;18.05;;;;;;;;;;5038230;28;20102;-66
2022/04/03 00:09:34;;;;;;;25.38;17.50;;;;;;;;;;5056453;28;20043;-66
2022/04/03 00:12:02;;;;;;;28.52;17.80;;;;;;;;;;5056336;28;20025;-65
2022/04/03 00:14:28;;;;;;;26.10;17.95;;;;;;;;;;5055837;28;20060;-66
2022/04/03 00:16:54;;;;;;;27.63;19.23;;;;;;;;;;5056201;28;20035;-65
2022/04/03 00:19:21;;;;;;;28.20;19.08;;;;;;;;;;5056241;28;20111;-65
2022/04/03 00:21:47;;;;;;;27.00;19.35;;;;;;;;;;5056206;28;20045;-63
2022/04/03 00:24:13;;;;;;;30.98;19.88;;;;;;;;;;5056141;28;20035;-66
2022/04/03 00:26:39;;;;;;;27.63;17.90;;;;;;;;;;5056178;28;20029;-65
2022/04/03 00:29:05;;;;;;;28.92;18.83;;;;;;;;;;5055781;28;20386;-65
2022/04/03 00:31:32;;;;;;;28.48;17.85;;;;;;;;;;5038068;28;20457;-66
2022/04/03 00:33:58;;;;;;;28.42;18.73;;;;;;;;;;5038354;28;20377;-66
2022/04/03 00:36:24;;;;;;;29.38;19.02;;;;;;;;;;5038015;28;20039;-66
2022/04/03 00:38:50;;;;;;;29.73;19.23;;;;;;;;;;5055899;28;20039;-65
2022/04/03 00:41:19;;;;;;;31.92;20.45;;;;;;;;;;5037947;28;20021;-66
2022/04/03 00:43:46;;;;;;;29.70;19.38;;;;;;;;;;5037902;28;20033;-63
2022/04/03 00:46:15;;;;;;;25.70;18.50;;;;;;;;;;5056033;28;20466;-63
2022/04/03 00:48:41;;;;;;;29.98;19.80;;;;;;;;;;5055689;28;20025;-63
2022/04/03 00:51:07;;;;;;;29.75;19.30;;;;;;;;;;5055679;28;20027;-64
2022/04/03 00:53:34;;;;;;;31.25;18.50;;;;;;;;;;5037717;28;20102;-64
2022/04/03 00:56:00;;;;;;;28.52;18.58;;;;;;;;;;5037549;28;20037;-65
2022/04/03 00:58:26;;;;;;;27.80;19.63;;;;;;;;;;5055585;28;20115;-63
2022/04/03 01:00:52;;;;;;;28.20;19.98;;;;;;;;;;5055203;28;20471;-63
2022/04/03 01:03:19;;;;;;;32.42;21.02;;;;;;;;;;5037561;28;20040;-65
2022/04/03 01:05:45;;;;;;;33.38;19.63;;;;;;;;;;5054747;28;20037;-66
2022/04/03 01:08:11;;;;;;;30.63;20.38;;;;;;;;;;5054819;28;20066;-67
2022/04/03 01:10:39;;;;;;;32.08;21.08;;;;;;;;;;5037394;28;20029;-66
2022/04/03 01:13:06;;;;;;;32.80;19.45;;;;;;;;;;5037311;28;20036;-66
2022/04/03 01:15:33;;;;;;;33.78;21.55;;;;;;;;;;5055128;28;20052;-67
2022/04/03 01:17:59;;;;;;;33.33;23.10;;;;;;;;;;5055150;28;20492;-67
2022/04/03 01:20:25;;;;;;;33.17;21.85;;;;;;;;;;5055116;28;20037;-66
2022/04/03 01:22:51;;;;;;;34.65;22.15;;;;;;;;;;5055072;28;20614;-66
2022/04/03 01:25:18;;;;;;;33.30;21.42;;;;;;;;;;5055003;28;20032;-64
2022/04/03 01:27:44;;;;;;;31.70;20.65;;;;;;;;;;5054979;28;20029;-64
2022/04/03 01:30:13;;;;;;;29.75;20.08;;;;;;;;;;5054916;28;20025;-65
2022/04/03 01:32:40;;;;;;;30.63;20.30;;;;;;;;;;5054904;28;20462;-65
2022/04/03 01:35:06;;;;;;;31.30;20.58;;;;;;;;;;5054817;28;20048;-65
2022/04/03 01:37:36;;;;;;;32.05;20.95;;;;;;;;;;5054752;28;20047;-63
2022/04/03 01:40:02;;;;;;;32.00;20.70;;;;;;;;;;5036862;28;20036;-65
2022/04/03 01:42:28;;;;;;;29.55;20.63;;;;;;;;;;5036773;28;20513;-65
2022/04/03 01:44:55;;;;;;;33.42;21.50;;;;;;;;;;5036678;28;20035;-65
2022/04/03 01:47:21;;;;;;;31.42;20.60;;;;;;;;;;5036812;28;20386;-65
2022/04/03 01:49:47;;;;;;;33.17;21.27;;;;;;;;;;5036697;28;20385;-65
2022/04/03 01:52:13;;;;;;;32.83;22.00;;;;;;;;;;5054517;28;20028;-65
2022/04/03 01:54:40;;;;;;;34.28;21.30;;;;;;;;;;5036213;28;20071;-66
2022/04/03 01:57:06;;;;;;;41.67;24.02;;;;;;;;;;5036492;28;20025;-65
2022/04/03 01:59:34;;;;;;;42.55;25.65;;;;;;;;;;5036439;28;20043;-66
2022/04/03 02:02:00;;;;;;;41.50;23.42;;;;;;;;;;5054328;28;20485;-66
2022/04/03 02:04:27;;;;;;;38.00;23.00;;;;;;;;;;5054313;28;20017;-66
2022/04/03 02:06:53;;;;;;;34.40;20.30;;;;;;;;;;5053997;28;20033;-66
2022/04/03 02:09:19;;;;;;;32.90;21.92;;;;;;;;;;5054224;28;20076;-66
2022/04/03 02:11:45;;;;;;;37.85;21.75;;;;;;;;;;5054173;28;20040;-65
2022/04/03 02:14:11;;;;;;;34.53;21.83;;;;;;;;;;5053772;28;20106;-66
2022/04/03 02:16:38;;;;;;;30.30;21.35;;;;;;;;;;5054032;28;20025;-65
2022/04/03 02:19:04;;;;;;;32.60;21.55;;;;;;;;;;5053908;28;20078;-65
2022/04/03 02:21:31;;;;;;;35.03;21.15;;;;;;;;;;5053950;28;20075;-65
2022/04/03 02:23:57;;;;;;;38.72;22.55;;;;;;;;;;5036055;28;20128;-65
2022/04/03 02:26:23;;;;;;;35.92;21.42;;;;;;;;;;5053822;28;20458;-65
2022/04/03 02:28:49;;;;;;;35.28;21.73;;;;;;;;;;5053883;28;20032;-65
2022/04/03 02:31:16;;;;;;;35.20;22.17;;;;;;;;;;5053792;28;20021;-64
2022/04/03 02:33:42;;;;;;;38.60;21.70;;;;;;;;;;5053748;28;20473;-65
2022/04/03 02:36:08;;;;;;;35.20;22.63;;;;;;;;;;5053331;28;20501;-65
2022/04/03 02:38:34;;;;;;;36.15;22.73;;;;;;;;;;5035787;28;20056;-66
2022/04/03 02:41:01;;;;;;;38.67;23.15;;;;;;;;;;5035720;28;20040;-64
2022/04/03 02:43:27;;;;;;;34.58;21.75;;;;;;;;;;5053550;28;20025;-65
2022/04/03 02:45:53;;;;;;;37.33;22.10;;;;;;;;;;5053517;28;20040;-65
2022/04/03 02:48:19;;;;;;;37.92;23.02;;;;;;;;;;5035571;28;20112;-66
2022/04/03 02:50:45;;;;;;;40.70;23.92;;;;;;;;;;5053694;28;20032;-66
2022/04/03 02:53:12;;;;;;;38.00;22.20;;;;;;;;;;5053384;28;20159;-65
2022/04/03 02:55:38;;;;;;;37.45;22.58;;;;;;;;;;5035481;28;20033;-65
2022/04/03 02:58:05;;;;;;;37.17;22.88;;;;;;;;;;5053266;28;20105;-65
2022/04/03 03:00:33;;;;;;;38.78;23.17;;;;;;;;;;5053293;28;20024;-65
2022/04/03 03:03:00;;;;;;;40.17;24.10;;;;;;;;;;5053260;28;20104;-65
2022/04/03 03:05:26;;;;;;;40.45;22.63;;;;;;;;;;5035354;28;20025;-65
2022/04/03 03:07:53;;;;;;;33.60;22.48;;;;;;;;;;5053432;28;20090;-65
2022/04/03 03:10:21;;;;;;;34.08;20.83;;;;;;;;;;5035238;28;20036;-65
2022/04/03 03:12:48;;;;;;;34.58;22.55;;;;;;;;;;5053134;28;20060;-65
2022/04/03 03:15:14;;;;;;;32.83;21.00;;;;;;;;;;5035014;28;20124;-65
2022/04/03 03:17:41;;;;;;;35.47;21.50;;;;;;;;;;5053065;28;20121;-64
2022/04/03 03:20:07;;;;;;;32.33;21.25;;;;;;;;;;5035049;28;20029;-65
2022/04/03 03:22:34;;;;;;;34.72;20.60;;;;;;;;;;5052714;28;20485;-65
2022/04/03 03:25:00;;;;;;;31.30;21.38;;;;;;;;;;5052927;28;20044;-65
2022/04/03 03:27:27;;;;;;;34.50;22.50;;;;;;;;;;5052972;28;20159;-66
2022/04/03 03:29:53;;;;;;;37.97;20.88;;;;;;;;;;5052357;28;20033;-63
2022/04/03 03:32:20;;;;;;;32.97;20.85;;;;;;;;;;5034931;28;20412;-65
2022/04/03 03:34:46;;;;;;;30.48;20.27;;;;;;;;;;5052929;28;20035;-64
2022/04/03 03:37:12;;;;;;;33.65;20.98;;;;;;;;;;5052751;28;20069;-63
2022/04/03 03:39:38;;;;;;;30.92;21.15;;;;;;;;;;5052897;28;20027;-65
2022/04/03 03:42:05;;;;;;;32.05;20.15;;;;;;;;;;5034878;28;20035;-65
2022/04/03 03:44:31;;;;;;;32.75;20.55;;;;;;;;;;5034824;28;20028;-65
2022/04/03 03:46:57;;;;;;;31.15;20.20;;;;;;;;;;5052802;28;20032;-65
2022/04/03 03:49:23;;;;;;;30.00;19.88;;;;;;;;;;5052715;28;20021;-65
2022/04/03 03:51:50;;;;;;;27.75;18.73;;;;;;;;;;5052719;28;20661;-66
2022/04/03 03:54:16;;;;;;;31.90;20.38;;;;;;;;;;5034753;28;20021;-66
2022/04/03 03:56:42;;;;;;;35.35;21.38;;;;;;;;;;5052747;28;20033;-65
2022/04/03 03:59:08;;;;;;;33.45;20.08;;;;;;;;;;5052697;28;20037;-63
2022/04/03 04:01:34;;;;;;;30.08;20.02;;;;;;;;;;5052625;28;20029;-64
2022/04/03 04:04:01;;;;;;;32.13;19.83;;;;;;;;;;5052560;28;20499;-66
2022/04/03 04:06:27;;;;;;;30.63;19.92;;;;;;;;;;5052573;28;20035;-66
2022/04/03 04:08:54;;;;;;;32.50;20.77;;;;;;;;;;5034723;28;20033;-63
2022/04/03 04:11:20;;;;;;;31.83;20.83;;;;;;;;;;5052525;28;20025;-64
2022/04/03 04:13:46;;;;;;;34.83;19.42;;;;;;;;;;5034346;28;20025;-64
2022/04/03 04:16:14;;;;;;;31.35;19.20;;;;;;;;;;5034582;28;20069;-65
2022/04/03 04:18:40;;;;;;;27.08;18.55;;;;;;;;;;5052487;28;20048;-64
2022/04/03 04:21:06;;;;;;;26.05;18.10;;;;;;;;;;5052154;28;20469;-64
2022/04/03 04:23:33;;;;;;;31.60;20.17;;;;;;;;;;5034527;28;20148;-64
2022/04/03 04:25:59;;;;;;;26.00;17.92;;;;;;;;;;5052375;28;20025;-65
2022/04/03 04:28:25;;;;;;;30.50;20.95;;;;;;;;;;5052373;28;20029;-64
2022/04/03 04:30:52;;;;;;;31.73;18.02;;;;;;;;;;5052328;28;20031;-65
2022/04/03 04:33:19;;;;;;;24.63;17.48;;;;;;;;;;5052245;28;20036;-63
2022/04/03 04:35:45;;;;;;;23.88;17.40;;;;;;;;;;5052319;28;20032;-63
2022/04/03 04:38:11;;;;;;;26.30;17.98;;;;;;;;;;5052239;28;20037;-64
2022/04/03 04:40:37;;;;;;;24.25;17.23;;;;;;;;;;5052169;28;20040;-64
2022/04/03 04:43:04;;;;;;;31.73;17.52;;;;;;;;;;5055321;28;20025;-63
2022/04/03 04:45:30;;;;;;;26.63;16.63;;;;;;;;;;5037816;28;20025;-64
2022/04/03 04:47:59;;;;;;;24.13;16.92;;;;;;;;;;5037785;28;20090;-63
2022/04/03 04:50:27;;;;;;;25.58;17.48;;;;;;;;;;5055777;28;20070;-63
2022/04/03 04:52:53;;;;;;;22.33;16.00;;;;;;;;;;5055671;28;20021;-63
2022/04/03 04:55:19;;;;;;;25.90;16.63;;;;;;;;;;5055553;28;20025;-63
2022/04/03 04:57:56;;;;;;;25.50;16.98;;;;;;;;;;5037509;28;20064;-63
2022/04/03 05:00:23;;;;;;;23.70;17.55;;;;;;;;;;5055543;28;20036;-63
2022/04/03 05:02:50;;;;;;;35.03;20.05;;;;;;;;;;5055455;28;20108;-63
2022/04/03 05:05:20;;;;;;;29.67;18.77;;;;;;;;;;5037481;28;20040;-63
2022/04/03 05:07:47;;;;;;;27.38;17.67;;;;;;;;;;5055404;28;20091;-63
2022/04/03 05:10:14;;;;;;;28.52;17.25;;;;;;;;;;5055332;28;20025;-63
2022/04/03 05:12:40;;;;;;;27.67;17.58;;;;;;;;;;5055172;28;20111;-64
2022/04/03 05:15:08;;;;;;;28.80;18.63;;;;;;;;;;5037036;28;20049;-63
2022/04/03 05:17:34;;;;;;;36.92;20.02;;;;;;;;;;5055043;28;20040;-64
2022/04/03 05:20:01;;;;;;;32.97;19.17;;;;;;;;;;5055167;28;20078;-63
2022/04/03 05:22:27;;;;;;;30.50;19.30;;;;;;;;;;5055071;28;20036;-65
2022/04/03 05:24:53;;;;;;;28.10;17.98;;;;;;;;;;5055054;28;20121;-65
2022/04/03 05:27:20;;;;;;;27.77;18.27;;;;;;;;;;5055022;28;20040;-64
2022/04/03 05:29:46;;;;;;;27.88;17.65;;;;;;;;;;5054984;28;20102;-65
2022/04/03 05:32:12;;;;;;;29.60;18.73;;;;;;;;;;5036967;28;20381;-65
2022/04/03 05:34:39;;;;;;;24.95;16.10;;;;;;;;;;5054899;28;20029;-65
2022/04/03 05:37:06;;;;;;;25.35;16.30;;;;;;;;;;5054803;28;20072;-64
2022/04/03 05:39:32;;;;;;;29.25;17.90;;;;;;;;;;5054784;28;20159;-65
2022/04/03 05:41:58;;;;;;;26.85;17.67;;;;;;;;;;5054730;28;20025;-65
2022/04/03 05:44:25;;;;;;;23.58;15.30;;;;;;;;;;5054702;28;20025;-65
2022/04/03 05:46:51;;;;;;;23.92;15.48;;;;;;;;;;5054655;28;20538;-64
2022/04/03 05:49:18;;;;;;;21.98;14.02;;;;;;;;;;5054678;28;20035;-65
2022/04/03 05:51:45;;;;;;;22.73;15.60;;;;;;;;;;5054395;28;20017;-65
2022/04/03 05:54:11;;;;;;;21.08;14.50;;;;;;;;;;5054272;28;20473;-64
2022/04/03 05:56:38;;;;;;;23.10;15.07;;;;;;;;;;5054400;28;20033;-64
2022/04/03 05:59:04;;;;;;;24.55;16.85;;;;;;;;;;5036623;28;20533;-65
2022/04/03 06:01:30;;;;;;;28.10;18.13;;;;;;;;;;5054359;28;20078;-64
2022/04/03 06:03:57;;;;;;;22.98;15.20;;;;;;;;;;5054348;28;20112;-64
2022/04/03 06:06:24;;;;;;;25.67;16.35;;;;;;;;;;5054286;28;20092;-63
2022/04/03 06:08:50;;;;;;;18.50;13.45;;;;;;;;;;5054270;28;20021;-64
2022/04/03 06:11:18;;;;;;;22.27;14.68;;;;;;;;;;5054179;28;20128;-64
2022/04/03 06:13:44;;;;;;;23.00;15.13;;;;;;;;;;5053895;28;20071;-64
2022/04/03 06:16:10;;;;;;;20.35;13.27;;;;;;;;;;5054053;28;20499;-64
2022/04/03 06:18:37;;;;;;;20.58;13.90;;;;;;;;;;5054013;28;20064;-64
2022/04/03 06:21:03;;;;;;;20.25;13.77;;;;;;;;;;5036150;28;20033;-64
2022/04/03 06:23:29;;;;;;;21.85;14.65;;;;;;;;;;5036008;28;20116;-64
2022/04/03 06:25:57;;;;;;;23.77;14.18;;;;;;;;;;5053916;28;20406;-63
2022/04/03 06:28:25;;;;;;;22.02;13.73;;;;;;;;;;5053853;28;20107;-64
2022/04/03 06:30:52;;;;;;;22.63;13.35;;;;;;;;;;5053562;28;20540;-63
2022/04/03 06:33:19;;;;;;;16.60;11.93;;;;;;;;;;5053788;28;20028;-63
2022/04/03 06:35:45;;;;;;;16.50;10.88;;;;;;;;;;5053656;28;20025;-63
2022/04/03 06:38:12;;;;;;;16.35;10.95;;;;;;;;;;5053544;28;20063;-63
2022/04/03 06:40:41;;;;;;;13.98;10.07;;;;;;;;;;5053692;28;20055;-63
2022/04/03 06:43:07;;;;;;;16.83;11.30;;;;;;;;;;5053334;28;20020;-63
2022/04/03 06:45:33;;;;;;;14.68;10.27;;;;;;;;;;5053761;28;20035;-63
2022/04/03 06:48:01;;;;;;;17.73;11.73;;;;;;;;;;5053516;28;20037;-63
2022/04/03 06:50:28;;;;;;;14.50;10.05;;;;;;;;;;5053484;28;20027;-65
2022/04/03 06:52:54;;;;;;;15.90;10.13;;;;;;;;;;5053114;28;20488;-63
2022/04/03 06:55:20;;;;;;;16.90;11.00;;;;;;;;;;5053381;28;20373;-63
2022/04/03 06:57:47;;;;;;;13.60;9.70;;;;;;;;;;5035338;28;20036;-63
2022/04/03 07:00:13;;;;;;;14.27;9.82;;;;;;;;;;5053338;28;20029;-63
2022/04/03 07:02:39;;;;;;;22.95;12.52;;;;;;;;;;5035385;28;20025;-63
2022/04/03 07:05:06;;;;;;;15.98;9.65;;;;;;;;;;5052499;28;20100;-63
2022/04/03 07:07:32;;;;;;;12.65;9.65;;;;;;;;;;5053207;28;20355;-63
2022/04/03 07:09:58;;;;;;;22.00;12.18;;;;;;;;;;5053208;28;20025;-63
2022/04/03 07:12:24;;;;;;;23.80;13.05;;;;;;;;;;5035161;28;20056;-63
2022/04/03 07:14:50;;;;;;;15.15;9.90;;;;;;;;;;5052964;28;20183;-63
2022/04/03 07:17:17;;;;;;;13.80;9.70;;;;;;;;;;5052984;28;20033;-63
2022/04/03 07:19:43;;;;;;;17.38;10.68;;;;;;;;;;5035079;28;20394;-64
2022/04/03 07:22:09;;;;;;;17.73;10.30;;;;;;;;;;5052994;28;20112;-63
2022/04/03 07:24:35;;;;;;;22.08;12.93;;;;;;;;;;5035078;28;20362;-63
2022/04/03 07:27:02;;;;;;;14.10;10.27;;;;;;;;;;5052916;28;20056;-63
2022/04/03 07:29:28;;;;;;;16.15;10.10;;;;;;;;;;5035108;28;20112;-64
2022/04/03 07:31:54;;;;;;;20.38;9.07;;;;;;;;;;5052560;28;20096;-62
2022/04/03 07:34:20;;;;;;;11.70;8.65;;;;;;;;;;5052496;28;20359;-63
2022/04/03 07:36:47;;;;;;;12.93;9.23;;;;;;;;;;5052073;28;20033;-63
2022/04/03 07:39:15;;;;;;;13.02;9.38;;;;;;;;;;5050200;28;20033;-63
2022/04/03 07:41:41;;;;;;;16.27;10.20;;;;;;;;;;5052516;28;20124;-63
2022/04/03 07:44:08;;;;;;;21.40;10.38;;;;;;;;;;5052499;28;20021;-63
2022/04/03 07:46:35;;;;;;;15.85;9.30;;;;;;;;;;5034498;28;20037;-64
2022/04/03 07:49:01;;;;;;;20.60;11.82;;;;;;;;;;5052157;28;20033;-63
2022/04/03 07:51:27;;;;;;;27.77;14.05;;;;;;;;;;5052351;28;20025;-63
2022/04/03 07:53:55;;;;;;;33.95;16.67;;;;;;;;;;5052337;28;20462;-63
2022/04/03 07:56:21;;;;;;;21.95;9.90;;;;;;;;;;5052196;28;20393;-64
2022/04/03 07:58:47;;;;;;;19.05;11.00;;;;;;;;;;5052158;28;20037;-63
2022/04/03 08:01:14;;;;;;;19.13;11.68;;;;;;;;;;5052659;28;20029;-63
2022/04/03 08:03:40;;;;;;;15.25;10.43;;;;;;;;;;5052574;28;20032;-63
2022/04/03 08:06:06;;;;;;;15.88;10.38;;;;;;;;;;5052237;28;20128;-65
2022/04/03 08:08:32;;;;;;;16.70;8.73;;;;;;;;;;5052509;28;20025;-64
2022/04/03 08:10:59;;;;;;;19.52;11.00;;;;;;;;;;5052866;28;20025;-63
2022/04/03 08:13:25;;;;;;;19.38;12.88;;;;;;;;;;5052566;28;20106;-63
2022/04/03 08:15:51;;;;;;;16.75;10.20;;;;;;;;;;5035835;28;20400;-64
2022/04/03 08:18:19;;;;;;;28.20;11.63;;;;;;;;;;5063113;28;20021;-63
2022/04/03 08:20:45;;;;;;;12.82;8.95;;;;;;;;;;5037819;28;20032;-64
2022/04/03 08:23:11;;;;;;;13.63;8.63;;;;;;;;;;5055938;28;20126;-63
2022/04/03 08:25:39;;;;;;;17.13;9.45;;;;;;;;;;5055705;28;20037;-64
2022/04/03 08:28:07;;;;;;;14.70;8.48;;;;;;;;;;5055873;28;20025;-64
2022/04/03 08:30:37;;;;;;;18.55;10.70;;;;;;;;;;5038056;28;20359;-64
2022/04/03 08:33:09;;;;;;;19.13;10.98;;;;;;;;;;5055758;28;20389;-64
2022/04/03 08:35:38;;;;;;;;;;;;;;;;;;5056388;28;20025;-63
2022/04/03 08:38:05;;;;;;;16.50;9.55;;;;;;;;;;5055581;28;19995;-64
2022/04/03 08:40:33;;;;;;;10.80;7.93;;;;;;;;;;5055735;28;20033;-64
2022/04/03 08:42:59;;;;;;;19.45;9.98;;;;;;;;;;5037827;28;20029;-64
2022/04/03 08:45:25;;;;;;;17.50;8.25;;;;;;;;;;5037842;28;20466;-63
2022/04/03 08:47:56;;;;;;;12.50;7.85;;;;;;;;;;5055404;28;20032;-64
2022/04/03 08:50:29;;;;;;;14.80;9.98;;;;;;;;;;5055472;28;20029;-65
2022/04/03 08:52:57;;;;;;;17.27;10.27;;;;;;;;;;5037068;28;20029;-65
2022/04/03 08:55:23;;;;;;;14.07;9.13;;;;;;;;;;5054773;28;20109;-64
2022/04/03 08:57:49;;;;;;;22.75;11.65;;;;;;;;;;5058646;28;20820;-68
2022/04/03 09:00:16;;;;;;;13.85;8.77;;;;;;;;;;5075351;28;20036;-64
2022/04/03 09:02:44;;;;;;;15.27;8.82;;;;;;;;;;5057335;28;20373;-65
2022/04/03 09:05:10;;;;;;;16.98;9.05;;;;;;;;;;5075250;28;20031;-65
2022/04/03 09:07:36;;;;;;;18.70;9.35;;;;;;;;;;5057105;28;20097;-65
2022/04/03 09:10:20;;;;;;;10.15;7.53;;;;;;;;;;5075164;28;20036;-63
2022/04/03 09:12:47;;;;;;;19.52;9.38;;;;;;;;;;5075036;28;20027;-64
2022/04/03 09:15:14;;;;;;;13.15;8.57;;;;;;;;;;5074740;28;20048;-64
2022/04/03 09:17:45;;;;;;;15.48;10.73;;;;;;;;;;5070839;28;20581;-64
2022/04/03 09:20:15;;;;;;;15.07;9.45;;;;;;;;;;5066390;28;20037;-67
2022/04/03 09:22:43;;;;;;;19.98;9.95;;;;;;;;;;5054734;28;20470;-66
2022/04/03 09:25:10;;;;;;;19.38;10.43;;;;;;;;;;5054908;28;20025;-66
2022/04/03 09:27:45;;;;;;;14.10;9.38;;;;;;;;;;5054044;28;20075;-66
2022/04/03 09:30:11;;;;;;;18.55;8.32;;;;;;;;;;5036777;28;20033;-65
2022/04/03 09:32:51;;;;;;;12.73;8.07;;;;;;;;;;5036837;28;20111;-64
2022/04/03 09:35:18;;;;;;;13.10;7.50;;;;;;;;;;5054614;28;20021;-66
2022/04/03 09:38:03;;;;;;;17.10;8.30;;;;;;;;;;5054459;28;20064;-67
2022/04/03 09:40:30;;;;;;;17.10;10.50;;;;;;;;;;5054678;28;20025;-66
2022/04/03 09:43:17;;;;;;;19.42;10.10;;;;;;;;;;5054646;28;20040;-64
2022/04/03 09:45:44;;;;;;;23.95;12.73;;;;;;;;;;5036276;28;20355;-63
2022/04/03 09:48:21;;;;;;;34.40;16.98;;;;;;;;;;5036497;28;20432;-67
2022/04/03 09:51:05;;;;;;;21.75;11.75;;;;;;;;;;5054583;28;20029;-67
2022/04/03 09:53:41;;;;;;;29.90;15.68;;;;;;;;;;5036505;28;20079;-71
2022/04/03 09:56:08;;;;;;;21.23;10.35;;;;;;;;;;5054227;28;20086;-67
2022/04/03 09:58:45;;;;;;;12.05;7.50;;;;;;;;;;5054091;28;20029;-67
2022/04/03 10:01:23;;;;;;;12.07;8.52;;;;;;;;;;5054269;28;20064;-69
2022/04/03 10:03:53;;;;;;;12.05;8.27;;;;;;;;;;5043844;28;20032;-68
2022/04/03 10:06:19;;;;;;;11.77;6.90;;;;;;;;;;5033061;28;20386;-67
2022/04/03 10:08:49;;;;;;;11.48;7.88;;;;;;;;;;5034019;28;20029;-67
2022/04/03 10:11:15;;;;;;;9.77;7.15;;;;;;;;;;5032948;28;20021;-66
2022/04/03 10:13:45;;;;;;;9.07;7.10;;;;;;;;;;5034031;28;20078;-65
2022/04/03 10:16:11;;;;;;;10.25;6.45;;;;;;;;;;5034399;28;20037;-69
2022/04/03 10:18:38;;;;;;;11.30;8.85;;;;;;;;;;5033927;28;20108;-67
2022/04/03 10:21:06;;;;;;;12.20;6.88;;;;;;;;;;5033998;28;20033;-71
2022/04/03 10:23:33;;;;;;;11.75;7.40;;;;;;;;;;5032687;28;20025;-69
2022/04/03 10:26:00;;;;;;;10.48;6.82;;;;;;;;;;5034033;28;20421;-67
2022/04/03 10:28:27;;;;;;;32.42;13.70;;;;;;;;;;5032533;28;20121;-69
2022/04/03 10:31:00;;;;;;;26.48;11.70;;;;;;;;;;5072924;28;20037;-68
2022/04/03 10:33:26;;;;;;;14.80;7.47;;;;;;;;;;5055477;28;20059;-68
2022/04/03 10:36:06;;;;;;;18.55;8.25;;;;;;;;;;5073623;28;20025;-70
2022/04/03 10:38:40;;;;;;;13.48;6.85;;;;;;;;;;5073255;28;20024;-68
2022/04/03 10:41:06;;;;;;;10.88;5.95;;;;;;;;;;5055486;28;20024;-68
2022/04/03 10:43:37;;;;;;;14.05;5.43;;;;;;;;;;5073659;28;20476;-68
2022/04/03 10:46:03;;;;;;;12.10;6.18;;;;;;;;;;5073399;28;20465;-68
2022/04/03 10:48:31;;;;;;;12.40;7.20;;;;;;;;;;5055247;28;20485;-69
2022/04/03 10:51:00;;;;;;;11.85;6.53;;;;;;;;;;5073189;28;20461;-69
2022/04/03 10:53:30;;;;;;;14.60;8.93;;;;;;;;;;5073234;28;20036;-65
2022/04/03 10:55:57;;;;;;;21.35;8.00;;;;;;;;;;5056603;28;20029;-64
2022/04/03 10:58:23;;;;;;;18.15;9.88;;;;;;;;;;5052409;28;20029;-64
2022/04/03 11:00:49;;;;;;;14.60;8.77;;;;;;;;;;5052586;28;20472;-65
2022/04/03 11:03:18;;;;;;;15.98;8.02;;;10.00;99.90;;;;;;5053107;28;20025;-65
2022/04/03 11:05:47;;;;;;;11.77;8.73;;;13.30;91.30;;;;;;5034799;28;20108;-66
2022/04/03 11:08:13;;;;;;;12.98;8.57;;;11.60;87.30;;;;;;5052789;28;20025;-66
2022/04/03 11:10:54;;;;;;;12.02;8.63;;;11.20;92.10;;;;;;5034970;28;20039;-65
2022/04/03 11:13:23;;;;;;;18.83;8.40;;;13.00;90.20;;;;;;5034939;28;20028;-70
2022/04/03 11:15:51;;;;;;;10.18;6.53;;;12.40;86.90;;;;;;5053008;28;20293;-68
2022/04/03 11:18:37;;;;;;;11.43;7.75;;;;;;;;;;5034843;28;20076;-66
2022/04/03 11:21:08;;;;;;;15.40;8.05;;;;;;;;;;5052490;28;20426;-65
2022/04/03 11:23:39;;;;;;;10.73;7.65;;;;;;;;;;5034894;28;20025;-64
2022/04/03 11:26:05;;;;;;;10.10;7.22;;;;;;;;;;5034970;28;20032;-67
2022/04/03 11:28:34;;;;;;;8.88;6.35;;;;;;;;;;5052727;28;20470;-65
2022/04/03 11:31:01;;;;;;;12.32;7.18;;;;;;;;;;5034833;28;20104;-69
2022/04/03 11:33:28;;;;;;;16.88;7.78;;;;;;;;;;5021569;28;20028;-68
2022/04/03 11:35:54;;;;;;;11.10;7.85;;;;;;;;;;5032387;28;20370;-68
2022/04/03 11:38:21;;;;;;;21.42;13.73;;;;;;;;;;5014921;28;20099;-68
2022/04/03 11:40:47;;;;;;;11.80;7.15;;;;;;;;;;5032540;28;20021;-67
2022/04/03 11:43:15;;;;;;;9.23;7.25;;;;;;;;;;5032756;28;20064;-66
2022/04/03 11:45:41;;;;;;;12.95;8.00;;;;;;;;;;5014867;28;20425;-66
2022/04/03 11:48:14;;;;;;;13.43;7.50;;;;;;;;;;5035237;28;20033;-64
2022/04/03 11:50:41;;;;;;;14.43;7.40;;;;;;;;;;5035182;28;20150;-70
2022/04/03 11:53:08;;;;;;;10.13;7.13;;;;;;;;;;5038565;28;20074;-68
2022/04/03 11:55:35;;;;;;;12.15;8.60;;;;;;;;;;5056379;28;20115;-67
2022/04/03 11:58:04;;;;;;;12.00;8.02;;;;;;;;;;5038454;28;20044;-66
2022/04/03 12:00:31;;;;;;;11.57;6.88;;;;;;;;;;5056180;28;20060;-71
2022/04/03 12:03:03;;;;;;;13.85;7.88;;;;;;;;;;5056476;28;20025;-70
2022/04/03 12:05:29;;;;;;;;;;;;;;;;;;5056835;28;20021;-68
2022/04/03 12:07:55;;;;;;;16.17;9.35;;;;;;;;;;5056259;28;19915;-68
2022/04/03 12:10:28;;;;;;;14.45;8.30;;;;;;;;;;5056187;28;20067;-67
2022/04/03 12:12:55;;;;;;;18.02;10.13;;;;;;;;;;5037983;28;20029;-68
2022/04/03 12:15:23;;;;;;;18.48;10.82;;;;;;;;;;5056069;28;20517;-66
2022/04/03 12:17:56;;;;;;;16.25;9.07;;;;;;;;;;5056063;28;20491;-68
2022/04/03 12:20:22;;;;;;;12.07;7.50;;;;;;;;;;5055933;28;20104;-67
2022/04/03 12:22:52;;;;;;;11.35;7.70;;;;;;;;;;5037991;28;20428;-69
2022/04/03 12:25:18;;;;;;;17.90;10.20;;;;;;;;;;5056236;28;20016;-71
2022/04/03 12:27:45;;;;;;;10.75;8.40;;;;;;;;;;5055728;28;20071;-65
2022/04/03 12:30:12;;;;;;;20.35;10.02;;;;;;;;;;5055883;28;20021;-65
2022/04/03 12:32:40;;;;;;;19.60;9.35;;;;;;;;;;5055815;28;20052;-65
2022/04/03 12:35:09;;;;;;;14.35;8.70;;;;;;;;;;5055458;28;20021;-66
2022/04/03 12:37:36;;;;;;;12.02;8.68;;;;;;;;;;5055548;28;20072;-67
2022/04/03 12:40:08;;;;;;;10.18;6.75;;;9.50;99.90;;;;;;5055513;28;20036;-66
2022/04/03 12:42:42;;;;;;;10.32;7.07;;;10.60;96.90;;;;;;5055582;28;20025;-65
2022/04/03 12:45:15;;;;;;;9.10;6.72;;;;;;;;;;5055670;28;20029;-65
2022/04/03 12:47:41;;;;;;;10.90;7.35;;;;;;;;;;5055430;28;20082;-66
2022/04/03 12:50:08;;;;;;;11.38;6.50;;;;;;;;;;5037516;28;20538;-64
2022/04/03 12:52:44;;;;;;;12.30;7.80;;;;;;;;;;5055492;28;20075;-64
2022/04/03 12:55:23;;;;;;;10.48;7.15;;;;;;;;;;5055490;28;20253;-64
2022/04/03 13:00:48;;;;;;;12.95;8.25;;;;;;;;;;5050392;28;20064;-66
2022/04/03 13:03:34;;;;;;;14.20;9.05;;;;;;;;;;5032882;28;20509;-65
2022/04/03 13:06:05;;;;;;;10.63;6.95;;;;;;;;;;5035134;28;20052;-66
2022/04/03 13:08:43;;;;;;;14.68;8.38;;;;;;;;;;5033919;28;20091;-63
2022/04/03 13:11:09;;;;;;;14.68;8.75;;;;;;;;;;5035100;28;20052;-63
2022/04/03 13:13:37;;;;;;;12.27;8.50;;;;;;;;;;5034894;28;20807;-64
2022/04/03 13:16:03;;;;;;;11.25;8.15;;;;;;;;;;5035418;28;20021;-63
2022/04/03 13:18:29;;;;;;;13.82;9.07;;;;;;;;;;5035171;28;20034;-63
2022/04/03 13:20:57;;;;;;;11.75;9.25;;;;;;;;;;5033110;28;20159;-63
2022/04/03 13:23:24;;;;;;;9.98;7.75;;;;;;;;;;5033790;28;20037;-63
2022/04/03 13:25:51;;;;;;;9.25;7.75;;;;;;;;;;5032625;28;20075;-63
2022/04/03 13:28:18;;;;;;;12.48;8.55;;;;;;;;;;5031952;28;20036;-63
2022/04/03 13:30:44;;;;;;;10.32;6.95;;;;;;;;;;5035051;28;20032;-63
2022/04/03 13:33:11;;;;;;;9.88;7.60;;;;;;;;;;5035101;28;20041;-64
2022/04/03 13:35:38;;;;;;;12.23;8.43;;;;;;;;;;5034889;28;20021;-63
2022/04/03 13:38:05;;;;;;;11.52;7.90;;;;;;;;;;5034787;28;20394;-63
2022/04/03 13:40:31;;;;;;;9.65;7.28;;;;;;;;;;5033464;28;20025;-65
2022/04/03 13:42:57;;;;;;;12.40;8.60;;;;;;;;;;5034868;28;20155;-63
2022/04/03 13:45:56;;;;;;;14.98;9.32;;;;;;;;;;5034561;28;20096;-63
2022/04/03 13:48:10;;;;;;;12.55;7.63;;;;;;;;;;5034301;28;20037;-63
2022/04/03 13:50:37;;;;;;;10.88;7.82;;;;;;;;;;5034592;28;20017;-63
2022/04/03 13:53:04;;;;;;;15.88;8.13;;;;;;;;;;5034428;28;20029;-63
2022/04/03 13:55:30;;;;;;;22.25;10.98;;;;;;;;;;5034639;28;20075;-63
2022/04/03 13:57:56;;;;;;;20.88;11.82;;;;;;;;;;5034593;28;20029;-63
2022/04/03 14:00:23;;;;;;;20.23;11.05;;;;;;;;;;5034532;28;20104;-63
2022/04/03 14:02:50;;;;;;;17.63;11.23;;;;;;;;;;5033192;28;20486;-63
2022/04/03 14:05:16;;;;;;;16.60;10.00;;;;;;;;;;5034420;28;20021;-63
2022/04/03 14:07:42;;;;;;;12.73;7.80;;;;;;;;;;5041222;28;20025;-65
2022/04/03 14:10:09;;;;;;;14.98;8.93;;;;;;;;;;5035808;28;20021;-64
2022/04/03 14:12:35;;;;;;;15.65;10.38;;;;;;;;;;5036251;28;20052;-65
2022/04/03 14:15:04;;;;;;;17.50;10.85;;;;;;;;;;5053233;28;20057;-65
2022/04/03 14:17:30;;;;;;;17.63;10.32;;;;;;;;;;5053973;28;20112;-64
2022/04/03 14:19:56;;;;;;;16.23;10.00;;;;;;;;;;5053718;28;20143;-65
2022/04/03 14:22:23;;;;;;;15.40;8.60;;;;;;;;;;5053086;28;20024;-64
2022/04/03 14:24:49;;;;;;;14.32;9.30;;;;;;;;;;5052998;28;20025;-64
2022/04/03 14:27:15;;;;;;;11.75;7.70;;;;;;;;;;5053689;28;20029;-64